Time;durP1;ratioP1;P1;durP2;ratioP2;P2;SDS_P1;SDS_P2;PMS_P1;PMS_P2;Temp;Humidity;BMP_temperature;BMP_pressure;BME280_temperature;BME280_humidity;BME280_pressure;Samples;Min_cycle;Max_cycle;Signal;HPM_P1;HPM_P2
2022/01/27 09:04:43;;;;;;;43.17;22.85;;;;;;;;;;6318402;22;20026;-81
2022/01/27 09:07:10;;;;;;;39.13;22.17;;;;;;;;;;6371079;22;20007;-81
2022/01/27 09:43:03;;;;;;;37.97;20.85;;;;;;;;;;6370757;22;20014;-83
2022/01/27 09:45:30;;;;;;;39.80;20.90;;;;;;;;;;6344690;22;20009;-84
2022/01/27 09:48:05;;;;;;;41.72;23.33;;;;;;;;;;6343520;22;20006;-83
2022/01/27 09:50:47;;;;;;;43.58;22.15;;;;;;;;;;6372526;22;20421;-83
2022/01/27 09:53:12;;;;;;;40.65;20.77;;;;;;;;;;6372612;22;20002;-84
2022/01/27 09:55:38;;;;;;;36.72;20.83;;;;;;;;;;6372399;22;20003;-83
2022/01/27 09:58:05;;;;;;;37.90;20.23;;;;;;;;;;6372374;22;20002;-83
2022/01/27 10:00:30;;;;;;;44.45;22.88;;;;;;;;;;6344257;22;20009;-83
2022/01/27 10:03:13;;;;;;;42.50;22.70;;;;;;;;;;6372433;22;20041;-83
2022/01/27 10:05:40;;;;;;;42.20;24.02;;;;;;;;;;6372660;22;20255;-82
2022/01/27 10:08:10;;;;;;;46.00;24.77;;;;;;;;;;6372339;22;20007;-83
2022/01/27 10:10:36;;;;;;;;;;;;;;;;;;6372886;22;20010;-83
2022/01/27 10:13:04;;;;;;;48.13;24.42;;;;;;;;;;6372510;22;19910;-83
2022/01/27 10:15:36;;;;;;;48.60;24.15;;;;;;;;;;6372288;22;19998;-83
2022/01/27 10:18:16;;;;;;;47.42;25.95;;;;;;;;;;6372094;22;20057;-84
2022/01/27 10:21:01;;;;;;;42.35;25.95;;;;;;;;;;6372353;22;20332;-82
2022/01/27 10:23:31;;;;;;;48.88;25.67;;;;;;;;;;6345431;22;20009;-83
2022/01/27 10:26:08;;;;;;;46.90;25.58;;;;;;;;;;6372072;22;20005;-86
2022/01/27 10:29:00;;;;;;;47.83;24.92;;;;;;;;;;6372120;22;20005;-88
2022/01/27 10:31:27;;;;;;;47.90;25.35;;;;;;;;;;6372098;22;20002;-84
2022/01/27 10:34:04;;;;;;;49.20;25.15;;;;;;;;;;6372201;22;20025;-81
2022/01/27 10:36:41;;;;;;;54.38;26.42;;;;;;;;;;6372314;22;20314;-84
2022/01/27 10:39:20;;;;;;;50.58;25.98;;;;;;;;;;6372037;22;20075;-82
2022/01/27 10:41:55;;;;;;;57.40;27.83;;;;;;;;;;6371791;22;20099;-83
2022/01/27 10:44:23;;;;;;;52.45;26.83;;;;;;;;;;6371958;22;20367;-85
2022/01/27 10:47:01;;;;;;;50.50;28.17;;;;;;;;;;6371970;22;20380;-85
2022/01/27 10:49:33;;;;;;;49.75;27.35;;;;;;;;;;6371979;22;20394;-85
2022/01/27 10:51:58;;;;;;;51.08;27.33;;;;;;;;;;6343892;22;20363;-85
2022/01/27 10:54:35;;;;;;;52.80;27.90;;;;;;;;;;6371836;22;20008;-85
2022/01/27 10:57:03;;;;;;;51.45;27.85;;;;;;;;;;6372351;22;19998;-84
2022/01/27 10:59:32;;;;;;;54.92;29.75;;;;;;;;;;6343719;22;20030;-85
2022/01/27 11:01:58;;;;;;;51.00;28.73;;;;;;;;;;6372001;22;19998;-84
2022/01/27 11:04:37;;;;;;;54.53;30.05;;;;;;;;;;6343799;22;20443;-86
2022/01/27 11:07:05;;;;;;;54.88;29.27;;;;;;;;;;6371854;22;20040;-85
2022/01/27 11:09:34;;;;;;;58.35;30.60;;;;;;;;;;6371861;22;20002;-84
2022/01/27 11:12:03;;;;;;;57.63;30.67;;;;;;;;;;6344740;22;20014;-84
2022/01/27 11:14:29;;;;;;;59.25;29.23;;;;;;;;;;6372030;22;20317;-85
2022/01/27 11:16:57;;;;;;;63.20;33.00;;;;;;;;;;6371284;22;20006;-85
2022/01/27 11:22:09;;;;;;;71.28;34.60;;;;;;;;;;6382577;22;20038;-85
2022/01/27 11:27:34;;;;;;;65.07;33.50;;;;;;;;;;6382660;22;20009;-86
2022/01/27 11:30:08;;;;;;;61.30;32.67;;;;;;;;;;6374521;22;20040;-86
2022/01/27 11:32:39;;;;;;;67.20;34.00;;;;;;;;;;6371802;22;20366;-86
2022/01/27 11:35:23;;;;;;;64.85;33.58;;;;;;;;;;6371692;22;20489;-85
2022/01/27 11:37:53;;;;;;;67.13;34.13;;;;;;;;;;6371400;22;20009;-86
2022/01/27 11:40:21;;;;;;;70.22;34.35;;;;;;;;;;6371436;22;20081;-88
2022/01/27 11:42:55;;;;;;;67.55;35.20;;;;;;;;;;6343554;22;20100;-85
2022/01/27 11:45:21;;;;;;;62.65;31.88;;;;;;;;;;6371496;22;20002;-84
2022/01/27 11:47:51;;;;;;;64.85;33.05;;;;;;;;;;6345556;22;20011;-84
2022/01/27 11:50:34;;;;;;;59.95;31.60;;;;;;;;;;6371449;22;19998;-85
2022/01/27 11:53:07;;;;;;;63.92;32.90;;;;;;;;;;6343328;22;20011;-85
2022/01/27 11:55:33;;;;;;;69.57;33.17;;;;;;;;;;6371409;22;20321;-85
2022/01/27 11:58:13;;;;;;;65.20;33.88;;;;;;;;;;6371073;22;20009;-85
2022/01/27 12:00:39;;;;;;;62.90;32.17;;;;;;;;;;6343497;22;20006;-85
2022/01/27 12:03:10;;;;;;;64.38;33.42;;;;;;;;;;6371118;22;20041;-85
2022/01/27 12:05:41;;;;;;;68.95;34.15;;;;;;;;;;6343255;22;20067;-85
2022/01/27 12:08:12;;;;;;;65.97;32.83;;;;;;;;;;6371205;22;19998;-85
2022/01/27 12:10:38;;;;;;;60.88;32.78;;;;;;;;;;6343391;22;20081;-85
2022/01/27 12:19:08;;;;;;;66.57;33.88;;;;;;;;;;6378339;22;20013;-85
2022/01/27 12:21:39;;;;;;;61.33;33.80;;;;;;;;;;6371086;22;20010;-85
2022/01/27 12:24:15;;;;;;;67.20;34.33;;;;;;;;;;6371237;22;20006;-86
2022/01/27 12:26:54;;;;;;;58.65;32.60;;;;;;;;;;6370978;22;20486;-86
2022/01/27 12:29:31;;;;;;;67.30;34.50;;;;;;;;;;6342991;22;20032;-86
2022/01/27 12:32:06;;;;;;;64.47;35.50;;;;;;;;;;6371164;22;19999;-85
2022/01/27 12:34:33;;;;;;;64.53;33.17;;;;;;;;;;6374508;22;20039;-84
2022/01/27 12:37:02;;;;;;;61.67;32.38;;;;;;;;;;6378327;22;19998;-83
2022/01/27 12:39:35;;;;;;;59.45;31.10;;;;;;;;;;6381716;22;20005;-84
2022/01/27 12:42:03;;;;;;;62.20;32.78;;;;;;;;;;6373175;22;20029;-84
2022/01/27 12:44:29;;;;;;;62.78;32.47;;;;;;;;;;6370943;22;20011;-84
2022/01/27 12:47:14;;;;;;;58.72;32.40;;;;;;;;;;6370841;22;19995;-84
2022/01/27 17:38:06;;;;;;;88.90;38.30;;;;;;;;;;6316243;22;20255;-85
2022/01/27 17:40:31;;;;;;;93.25;39.92;;;;;;;;;;6344569;22;20006;-85
2022/01/27 17:43:04;;;;;;;88.85;39.03;;;;;;;;;;6372605;22;20006;-85
2022/01/27 17:45:29;;;;;;;93.28;40.80;;;;;;;;;;6344289;22;20089;-85
2022/01/27 17:47:57;;;;;;;89.15;40.75;;;;;;;;;;6372819;22;20429;-85
2022/01/27 17:50:24;;;;;;;89.40;38.63;;;;;;;;;;6344926;22;20067;-86
2022/01/27 17:52:50;;;;;;;89.72;39.90;;;;;;;;;;6344625;22;20010;-86
2022/01/27 17:55:16;;;;;;;87.68;38.85;;;;;;;;;;6344385;22;20026;-86
2022/01/27 17:57:43;;;;;;;88.10;39.65;;;;;;;;;;6372418;22;20009;-85
2022/01/27 18:00:11;;;;;;;93.88;40.67;;;;;;;;;;6344377;22;20003;-86
2022/01/27 18:02:36;;;;;;;87.10;40.80;;;;;;;;;;6372640;22;20003;-86
2022/01/27 18:05:02;;;;;;;88.47;38.50;;;;;;;;;;6344258;22;20466;-86
2022/01/27 18:07:28;;;;;;;82.68;37.95;;;;;;;;;;6372529;22;20002;-87
2022/01/27 18:09:55;;;;;;;85.28;38.60;;;;;;;;;;6344435;22;20436;-85
2022/01/27 18:12:22;;;;;;;80.32;37.10;;;;;;;;;;6344093;22;20006;-86
2022/01/27 18:14:48;;;;;;;83.93;38.70;;;;;;;;;;6372154;22;19999;-87
2022/01/27 18:17:13;;;;;;;83.38;36.53;;;;;;;;;;6372320;22;20053;-86
2022/01/27 18:19:38;;;;;;;78.18;37.03;;;;;;;;;;6372485;22;20006;-84
2022/01/27 18:22:04;;;;;;;76.78;34.92;;;;;;;;;;6344256;22;20013;-85
2022/01/27 18:24:30;;;;;;;69.80;36.20;;;;;;;;;;6372089;22;20006;-86
2022/01/27 18:26:56;;;;;;;76.13;36.60;;;;;;;;;;6372351;22;20003;-86
2022/01/27 18:29:21;;;;;;;74.85;36.17;;;;;;;;;;6344115;22;20360;-85
2022/01/27 18:31:48;;;;;;;80.80;37.10;;;;;;;;;;6372023;22;20006;-85
2022/01/27 18:34:13;;;;;;;72.82;37.33;;;;;;;;;;6373127;22;20005;-87
2022/01/27 18:36:39;;;;;;;78.43;35.60;;;;;;;;;;6372079;22;20006;-87
2022/01/27 18:39:05;;;;;;;80.80;38.05;;;;;;;;;;6373233;22;20378;-85
2022/01/27 18:41:31;;;;;;;110.13;52.75;;;;;;;;;;6371906;22;20002;-86
2022/01/27 18:43:57;;;;;;;84.18;38.45;;;;;;;;;;6344085;22;20306;-86
2022/01/27 18:46:23;;;;;;;78.32;37.60;;;;;;;;;;6372962;22;19998;-86
2022/01/27 18:48:50;;;;;;;79.63;35.17;;;;;;;;;;6372001;22;20006;-86
2022/01/27 18:51:18;;;;;;;77.47;35.58;;;;;;;;;;6372044;22;19998;-85
2022/01/27 18:53:44;;;;;;;78.75;36.10;;;;;;;;;;6371476;22;20425;-85
2022/01/27 18:56:10;;;;;;;86.80;38.72;;;;;;;;;;6371676;22;20006;-87
2022/01/27 18:58:35;;;;;;;80.18;36.60;;;;;;;;;;6317621;22;20010;-86
2022/01/27 19:01:02;;;;;;;84.15;37.40;;;;;;;;;;6372365;22;19999;-86
2022/01/27 19:03:29;;;;;;;74.18;34.10;;;;;;;;;;6371831;22;20002;-85
2022/01/27 19:05:54;;;;;;;79.28;36.95;;;;;;;;;;6371807;22;20002;-84
2022/01/27 19:08:20;;;;;;;84.53;35.97;;;;;;;;;;6372130;22;20057;-84
2022/01/27 19:10:47;;;;;;;82.68;35.03;;;;;;;;;;6372137;22;20417;-85
2022/01/27 19:13:15;;;;;;;73.28;34.83;;;;;;;;;;6343794;22;20006;-87
2022/01/27 19:15:41;;;;;;;76.68;34.25;;;;;;;;;;6343756;22;20053;-84
2022/01/27 19:18:08;;;;;;;79.55;34.17;;;;;;;;;;6371765;22;20388;-85
2022/01/27 19:20:34;;;;;;;74.22;34.88;;;;;;;;;;6371922;22;20003;-84
2022/01/27 19:23:01;;;;;;;76.55;35.25;;;;;;;;;;6343986;22;20006;-85
2022/01/27 19:25:32;;;;;;;75.60;35.92;;;;;;;;;;6371808;22;20002;-85
2022/01/27 19:27:57;;;;;;;81.10;36.10;;;;;;;;;;6371675;22;20005;-85
2022/01/27 19:30:24;;;;;;;83.22;36.78;;;;;;;;;;6371855;22;19999;-85
2022/01/27 21:14:26;;;;;;;75.88;33.40;;;;;;;;;;6299164;22;20076;-87
2022/01/27 21:16:52;;;;;;;69.75;32.00;;;;;;;;;;6339441;22;20059;-84
2022/01/27 21:19:19;;;;;;;71.97;32.92;;;;;;;;;;6339303;22;20003;-87
2022/01/27 21:21:44;;;;;;;73.47;31.77;;;;;;;;;;6360970;22;20069;-86
2022/01/27 21:24:10;;;;;;;73.55;32.13;;;;;;;;;;6342853;22;20049;-85
2022/01/27 21:26:38;;;;;;;73.07;32.88;;;;;;;;;;6369179;22;20009;-86
2022/01/27 21:29:03;;;;;;;69.38;31.90;;;;;;;;;;6343174;22;20006;-86
2022/01/27 21:31:29;;;;;;;80.95;34.75;;;;;;;;;;6370613;22;20026;-86
2022/01/27 21:33:58;;;;;;;73.05;31.10;;;;;;;;;;6370958;22;20002;-86
2022/01/27 21:36:23;;;;;;;67.82;30.98;;;;;;;;;;6370792;22;19995;-86
2022/01/27 21:38:49;;;;;;;63.80;30.90;;;;;;;;;;6370765;22;20044;-86
2022/01/27 21:41:15;;;;;;;68.93;32.75;;;;;;;;;;6370828;22;19994;-87
2022/01/27 21:43:40;;;;;;;67.75;30.83;;;;;;;;;;6343372;22;20012;-87
2022/01/27 21:46:09;;;;;;;72.32;30.77;;;;;;;;;;6343313;22;20433;-86
2022/01/27 21:48:35;;;;;;;67.77;31.17;;;;;;;;;;6370734;22;19998;-86
2022/01/27 21:51:01;;;;;;;65.20;30.63;;;;;;;;;;6342906;22;20009;-87
2022/01/27 21:53:26;;;;;;;72.07;32.40;;;;;;;;;;6342998;22;20015;-87
2022/01/27 21:55:51;;;;;;;60.80;29.25;;;;;;;;;;6343092;22;20013;-86
2022/01/27 21:58:20;;;;;;;60.85;28.85;;;;;;;;;;6370618;22;20105;-87
2022/01/27 22:00:45;;;;;;;65.78;28.88;;;;;;;;;;6371024;22;20002;-86
2022/01/27 22:03:11;;;;;;;62.42;28.45;;;;;;;;;;6343909;22;20006;-87
2022/01/27 22:05:36;;;;;;;60.92;28.77;;;;;;;;;;6343961;22;20010;-86
2022/01/27 22:08:02;;;;;;;63.20;29.65;;;;;;;;;;6371073;22;20370;-87
2022/01/27 22:10:27;;;;;;;69.60;29.52;;;;;;;;;;6370899;22;20480;-86
2022/01/27 22:12:52;;;;;;;58.08;26.52;;;;;;;;;;6371037;22;20006;-86
2022/01/27 22:15:20;;;;;;;61.58;27.58;;;;;;;;;;6371533;22;20029;-87
2022/01/27 22:17:46;;;;;;;57.17;24.90;;;;;;;;;;6344706;22;20424;-87
2022/01/27 22:20:12;;;;;;;65.70;28.48;;;;;;;;;;6372605;22;20002;-87
2022/01/27 22:22:40;;;;;;;54.95;25.23;;;;;;;;;;6372526;22;20009;-87
2022/01/27 22:25:08;;;;;;;58.42;26.60;;;;;;;;;;6372598;22;20001;-87
2022/01/27 22:27:34;;;;;;;57.97;26.65;;;;;;;;;;6372325;22;20026;-87
2022/01/27 22:29:59;;;;;;;52.80;24.83;;;;;;;;;;6344314;22;20003;-87
2022/01/27 22:32:27;;;;;;;62.60;28.30;;;;;;;;;;6344248;22;20427;-87
2022/01/27 22:34:53;;;;;;;62.65;27.58;;;;;;;;;;6370680;22;20051;-87
2022/01/27 22:37:18;;;;;;;58.40;27.25;;;;;;;;;;6344585;22;20006;-87
2022/01/27 22:39:43;;;;;;;57.35;27.73;;;;;;;;;;6344422;22;20440;-86
2022/01/27 22:42:09;;;;;;;54.22;26.92;;;;;;;;;;6372621;22;19998;-86
2022/01/27 22:44:34;;;;;;;61.55;28.35;;;;;;;;;;6372112;22;20468;-86
2022/01/27 22:47:00;;;;;;;65.07;27.63;;;;;;;;;;6344251;22;20359;-87
2022/01/27 22:49:25;;;;;;;63.17;28.90;;;;;;;;;;6372068;22;20002;-84
2022/01/27 22:51:53;;;;;;;61.42;28.75;;;;;;;;;;6343640;22;20332;-86
2022/01/27 22:54:21;;;;;;;70.90;30.73;;;;;;;;;;6343837;22;20421;-86
2022/01/27 22:56:49;;;;;;;69.47;28.95;;;;;;;;;;6370559;22;20107;-86
